createdAt,value
2019-05-14T00:01:51.288Z,103878.30
2019-05-14T00:04:22.066Z,103879.41
2019-05-14T00:06:52.461Z,103877.11
2019-05-14T00:09:22.524Z,103870.36
2019-05-14T00:11:52.747Z,103865.38
2019-05-14T00:14:35.693Z,103863.47
2019-05-14T00:16:55.048Z,103864.55
2019-05-14T00:19:25.643Z,103867.98
2019-05-14T00:21:55.978Z,103863.84
2019-05-14T00:24:26.478Z,103872.60
2019-05-14T00:26:56.808Z,103876.70
2019-05-14T00:29:27.587Z,103874.69
2019-05-14T00:31:58.088Z,103853.64
2019-05-14T00:34:28.574Z,103855.24
2019-05-14T00:37:01.396Z,103845.93
2019-05-14T00:39:32.065Z,103851.81
2019-05-14T00:42:02.743Z,103852.45
2019-05-14T00:44:33.062Z,103861.75
2019-05-14T00:47:03.414Z,103857.54
2019-05-14T00:49:33.805Z,103859.02
2019-05-14T00:52:04.154Z,103861.03
2019-05-14T00:54:34.436Z,103854.73
2019-05-14T00:57:04.835Z,103855.81
2019-05-14T00:59:35.010Z,103859.94
2019-05-14T01:02:05.458Z,103864.55
2019-05-14T01:04:35.609Z,103862.53
2019-05-14T01:07:14.939Z,103862.01
2019-05-14T01:09:52.356Z,103849.08
2019-05-14T01:12:22.807Z,103849.68
2019-05-14T01:15:06.638Z,103850.27
2019-05-14T01:17:24.954Z,103851.48
2019-05-14T01:19:55.264Z,103849.47
2019-05-14T01:22:25.671Z,103845.25
2019-05-14T01:24:55.942Z,103847.14
2019-05-14T01:27:26.517Z,103851.86
2019-05-14T01:29:56.767Z,103856.14
2019-05-14T01:32:27.122Z,103841.81
2019-05-14T01:34:57.306Z,103843.04
2019-05-14T01:37:27.818Z,103844.22
2019-05-14T01:39:58.007Z,103853.75
2019-05-14T01:42:28.181Z,103855.75
2019-05-14T01:44:58.400Z,103852.91
2019-05-14T01:47:33.919Z,103849.94
2019-05-14T01:50:04.283Z,103851.84
2019-05-14T01:52:34.669Z,103852.63
2019-05-14T01:55:05.014Z,103854.45
2019-05-14T01:57:35.418Z,103852.63
2019-05-14T02:00:08.363Z,103857.54
2019-05-14T02:02:38.609Z,103855.83
2019-05-14T02:05:09.421Z,103848.02
2019-05-14T02:07:41.816Z,103847.00
2019-05-14T02:10:12.382Z,103838.59
2019-05-14T02:12:42.917Z,103845.39
2019-05-14T02:15:13.489Z,103839.09
2019-05-14T02:17:43.900Z,103831.45
2019-05-14T02:20:14.420Z,103835.65
2019-05-14T02:22:44.877Z,103841.06
2019-05-14T02:25:15.555Z,103833.55
2019-05-14T02:27:46.024Z,103826.80
2019-05-14T02:30:20.268Z,103821.92
2019-05-14T02:32:49.771Z,103819.98
2019-05-14T02:35:20.405Z,103818.07
2019-05-14T02:37:50.837Z,103812.27
2019-05-14T02:40:21.153Z,103819.47
2019-05-14T02:42:51.325Z,103813.66
2019-05-14T02:45:21.980Z,103812.64
2019-05-14T02:47:52.254Z,103819.44
2019-05-14T02:50:22.702Z,103808.83
2019-05-14T02:52:52.978Z,103801.91
2019-05-14T02:55:23.353Z,103804.92
2019-05-14T02:57:53.603Z,103803.91
2019-05-14T03:00:24.051Z,103798.47
2019-05-14T03:02:59.522Z,103800.20
2019-05-14T03:05:29.485Z,103789.28
2019-05-14T03:08:00.084Z,103785.06
2019-05-14T03:10:30.630Z,103787.02
2019-05-14T03:13:01.033Z,103785.11
2019-05-14T03:15:31.330Z,103784.19
2019-05-14T03:18:01.605Z,103779.39
2019-05-14T03:20:32.088Z,103777.30
2019-05-14T03:23:08.694Z,103776.98
2019-05-14T03:25:34.672Z,103774.12
2019-05-14T03:28:05.096Z,103769.18
2019-05-14T03:30:35.542Z,103767.62
2019-05-14T03:33:12.589Z,103768.15
2019-05-14T03:35:44.231Z,103775.55
2019-05-14T03:38:11.652Z,103776.03
2019-05-14T03:40:43.527Z,103780.34
2019-05-14T03:43:13.752Z,103777.34
2019-05-14T03:45:44.101Z,103776.16
2019-05-14T03:48:14.332Z,103768.87
2019-05-14T03:50:44.620Z,103766.27
2019-05-14T03:53:15.343Z,103769.36
2019-05-14T03:55:45.709Z,103766.88
2019-05-14T03:58:20.671Z,103758.25
2019-05-14T04:01:00.415Z,103760.08
2019-05-14T04:03:31.848Z,103758.56
2019-05-14T04:06:03.906Z,103759.09
2019-05-14T04:08:38.903Z,103751.77
2019-05-14T04:11:09.810Z,103749.77
2019-05-14T04:13:41.488Z,103750.38
2019-05-14T04:16:15.383Z,103754.52
2019-05-14T04:18:50.359Z,103751.41
2019-05-14T04:21:22.429Z,103752.61
2019-05-14T04:23:52.718Z,103754.34
2019-05-14T04:26:23.086Z,103749.55
2019-05-14T04:28:53.346Z,103749.45
2019-05-14T04:31:23.523Z,103752.06
2019-05-14T04:33:58.934Z,103751.18
2019-05-14T04:36:29.987Z,103749.18
2019-05-14T04:39:00.590Z,103745.39
2019-05-14T04:41:31.126Z,103748.30
2019-05-14T04:44:01.553Z,103745.98
2019-05-14T04:46:31.901Z,103741.84
2019-05-14T04:49:02.218Z,103742.42
2019-05-14T04:51:33.907Z,103736.49
2019-05-14T04:54:04.279Z,103740.19
2019-05-14T04:56:34.574Z,103736.45
2019-05-14T04:59:04.782Z,103740.52
2019-05-14T05:01:34.935Z,103741.50
2019-05-14T05:04:05.128Z,103743.67
2019-05-14T05:06:35.442Z,103739.36
2019-05-14T05:09:09.674Z,103744.83
2019-05-14T05:11:40.011Z,103739.92
2019-05-14T05:14:10.318Z,103738.85
2019-05-14T05:16:40.662Z,103737.61
2019-05-14T05:19:10.849Z,103731.52
2019-05-14T05:21:41.096Z,103732.20
2019-05-14T05:24:11.425Z,103722.28
2019-05-14T05:26:41.695Z,103726.41
2019-05-14T05:29:11.843Z,103736.34
2019-05-14T05:31:42.127Z,103729.13
2019-05-14T05:34:12.285Z,103732.41
2019-05-14T05:36:42.490Z,103735.95
2019-05-14T05:39:12.668Z,103740.13
2019-05-14T05:41:42.953Z,103740.23
2019-05-14T05:44:13.140Z,103742.45
2019-05-14T05:46:43.439Z,103740.44
2019-05-14T05:49:13.546Z,103742.23
2019-05-14T05:51:43.769Z,103744.05
2019-05-14T05:54:14.107Z,103739.31
2019-05-14T05:56:44.318Z,103740.03
2019-05-14T05:59:14.483Z,103736.73
2019-05-14T06:01:46.534Z,103736.13
2019-05-14T06:04:18.174Z,103730.72
2019-05-14T06:06:48.570Z,103723.77
2019-05-14T06:09:18.837Z,103730.50
2019-05-14T06:11:49.048Z,103733.59
2019-05-14T06:14:19.397Z,103735.30
2019-05-14T06:16:49.721Z,103739.20
2019-05-14T06:19:20.119Z,103739.97
2019-05-14T06:21:50.386Z,103752.06
2019-05-14T06:24:20.776Z,103743.22
2019-05-14T06:26:51.111Z,103747.34
2019-05-14T06:29:21.278Z,103742.95
2019-05-14T06:31:51.652Z,103749.50
2019-05-14T06:34:21.976Z,103746.33
2019-05-14T06:36:52.316Z,103751.28
2019-05-14T06:39:22.593Z,103756.66
2019-05-14T06:41:52.984Z,103758.20
2019-05-14T06:44:23.185Z,103753.53
2019-05-14T06:46:53.609Z,103754.30
2019-05-14T06:49:23.788Z,103750.50
2019-05-14T06:51:54.097Z,103755.36
2019-05-14T06:54:24.331Z,103753.64
2019-05-14T06:56:54.658Z,103751.34
2019-05-14T06:59:24.842Z,103748.89
2019-05-14T07:01:55.108Z,103750.86
2019-05-14T07:04:25.348Z,103756.48
2019-05-14T07:06:55.787Z,103755.95
2019-05-14T07:09:25.993Z,103759.47
2019-05-14T07:11:58.504Z,103757.65
2019-05-14T07:14:28.460Z,103761.23
2019-05-14T07:16:59.067Z,103763.25
2019-05-14T07:19:29.714Z,103763.48
2019-05-14T07:22:00.404Z,103758.92
2019-05-14T07:24:30.669Z,103761.63
2019-05-14T07:27:00.903Z,103768.67
2019-05-14T07:29:31.117Z,103765.20
2019-05-14T07:32:01.313Z,103769.19
2019-05-14T07:34:31.640Z,103768.12
2019-05-14T07:37:01.848Z,103757.36
2019-05-14T07:39:32.100Z,103755.91
2019-05-14T07:42:02.688Z,103742.75
2019-05-14T07:44:32.936Z,103743.05
2019-05-14T07:47:03.219Z,103737.23
2019-05-14T07:49:33.395Z,103726.53
2019-05-14T07:52:03.775Z,103714.05
2019-05-14T07:54:33.961Z,103723.28
2019-05-14T07:57:04.219Z,103716.27
2019-05-14T07:59:34.528Z,103724.77
2019-05-14T08:02:04.793Z,103728.86
2019-05-14T08:04:35.000Z,103723.52
2019-05-14T08:07:05.222Z,103706.89
2019-05-14T08:09:35.319Z,103708.70
2019-05-14T08:12:09.071Z,103704.28
2019-05-14T08:14:53.062Z,103700.34
2019-05-14T08:17:11.010Z,103716.22
2019-05-14T08:19:41.220Z,103715.66
2019-05-14T08:22:11.630Z,103708.09
2019-05-14T08:24:41.932Z,103706.44
2019-05-14T08:27:12.098Z,103710.31
2019-05-14T08:29:42.435Z,103711.64
2019-05-14T08:32:12.785Z,103713.80
2019-05-14T08:34:43.023Z,103715.38
2019-05-14T08:37:15.193Z,103713.12
2019-05-14T08:39:45.430Z,103706.95
2019-05-14T08:42:15.812Z,103707.49
2019-05-14T08:44:50.344Z,103706.05
2019-05-14T08:47:18.402Z,103709.81
2019-05-14T08:49:50.719Z,103702.47
2019-05-14T08:52:20.864Z,103707.77
2019-05-14T08:55:05.367Z,103700.89
2019-05-14T08:57:23.193Z,103696.79
2019-05-14T08:59:53.432Z,103695.20
2019-05-14T09:02:23.777Z,103692.59
2019-05-14T09:04:55.223Z,103683.43
2019-05-14T09:07:25.655Z,103678.33
2019-05-14T09:09:55.872Z,103673.91
2019-05-14T09:12:28.015Z,103671.30
2019-05-14T09:14:58.916Z,103663.02
2019-05-14T09:17:29.445Z,103668.81
2019-05-14T09:20:06.552Z,103660.52
2019-05-14T09:22:31.777Z,103657.98
2019-05-14T09:25:01.968Z,103668.48
2019-05-14T09:27:32.134Z,103668.73
2019-05-14T09:30:02.346Z,103664.92
2019-05-14T09:32:33.454Z,103664.34
2019-05-14T09:35:03.710Z,103660.51
2019-05-14T09:37:33.969Z,103649.14
2019-05-14T09:40:05.913Z,103648.34
2019-05-14T09:42:38.963Z,103637.35
2019-05-14T09:45:11.007Z,103636.08
2019-05-14T09:47:41.027Z,103636.99
2019-05-14T09:50:19.238Z,103636.98
2019-05-14T09:52:44.034Z,103644.08
2019-05-14T09:55:14.624Z,103639.56
2019-05-14T09:57:44.870Z,103640.03
2019-05-14T10:00:15.362Z,103640.61
2019-05-14T10:02:48.866Z,103640.33
2019-05-14T10:05:19.480Z,103632.86
2019-05-14T10:07:50.154Z,103635.08
2019-05-14T10:10:21.056Z,103627.17
2019-05-14T10:12:56.364Z,103612.21
2019-05-14T10:15:23.490Z,103627.89
2019-05-14T10:17:54.149Z,103622.16
2019-05-14T10:20:36.504Z,103617.39
2019-05-14T10:22:58.446Z,103618.36
2019-05-14T10:25:28.787Z,103605.55
2019-05-14T10:27:59.232Z,103597.56
2019-05-14T10:30:29.785Z,103598.00
2019-05-14T10:33:09.525Z,103597.52
2019-05-14T10:35:32.258Z,103594.95
2019-05-14T10:38:02.584Z,103591.44
2019-05-14T10:40:33.035Z,103588.78
2019-05-14T10:43:03.322Z,103592.44
2019-05-14T10:45:33.597Z,103584.50
2019-05-14T10:48:03.893Z,103584.16
2019-05-14T10:50:37.887Z,103578.84
2019-05-14T10:53:09.022Z,103575.77
2019-05-14T10:55:38.934Z,103588.26
2019-05-14T10:58:09.183Z,103576.75
2019-05-14T11:00:41.991Z,103571.39
2019-05-14T11:03:11.693Z,103566.09
2019-05-14T11:05:41.910Z,103569.72
2019-05-14T11:08:12.298Z,103564.42
2019-05-14T11:10:42.837Z,103573.33
2019-05-14T11:13:13.136Z,103565.77
2019-05-14T11:15:43.461Z,103567.95
2019-05-14T11:18:13.652Z,103557.66
2019-05-14T11:20:43.899Z,103550.45
2019-05-14T11:23:14.152Z,103554.39
2019-05-14T11:25:44.458Z,103539.21
2019-05-14T11:28:14.786Z,103544.11
2019-05-14T11:30:45.109Z,103543.17
2019-05-14T11:33:15.401Z,103538.22
2019-05-14T11:35:45.688Z,103534.60
2019-05-14T11:38:28.449Z,103535.84
2019-05-14T11:40:49.557Z,103530.37
2019-05-14T11:43:19.966Z,103518.28
2019-05-14T11:45:50.315Z,103515.94
2019-05-14T11:48:20.604Z,103517.54
2019-05-14T11:50:53.864Z,103509.26
2019-05-14T11:53:25.165Z,103501.40
2019-05-14T11:55:55.517Z,103501.59
2019-05-14T11:58:25.779Z,103496.76
2019-05-14T12:00:58.336Z,103499.03
2019-05-14T12:03:28.592Z,103507.50
2019-05-14T12:05:59.039Z,103494.59
2019-05-14T12:08:29.289Z,103491.50
2019-05-14T12:10:59.571Z,103485.34
2019-05-14T12:13:32.662Z,103484.14
2019-05-14T12:16:01.905Z,103474.00
2019-05-14T12:18:32.429Z,103473.58
2019-05-14T12:21:02.581Z,103468.63
2019-05-14T12:23:33.062Z,103465.12
2019-05-14T12:26:03.648Z,103464.99
2019-05-14T12:28:33.945Z,103462.15
2019-05-14T12:31:04.104Z,103466.36
2019-05-14T12:33:34.378Z,103465.45
2019-05-14T12:36:04.581Z,103457.52
2019-05-14T12:38:34.965Z,103454.58
2019-05-14T12:41:05.308Z,103448.14
2019-05-14T12:43:35.578Z,103457.14
2019-05-14T12:46:10.287Z,103456.39
2019-05-14T12:48:39.403Z,103453.79
2019-05-14T12:51:09.646Z,103452.28
2019-05-14T12:53:40.013Z,103445.52
2019-05-14T12:56:10.409Z,103429.44
2019-05-14T12:58:45.446Z,103438.91
2019-05-14T13:01:12.832Z,103429.20
2019-05-14T13:03:42.955Z,103436.92
2019-05-14T13:06:13.229Z,103421.56
2019-05-14T13:08:43.591Z,103418.09
2019-05-14T13:11:14.312Z,103415.69
2019-05-14T13:13:44.675Z,103420.58
2019-05-14T13:16:14.972Z,103418.23
2019-05-14T13:18:45.332Z,103415.71
2019-05-14T13:21:15.609Z,103420.86
2019-05-14T13:23:45.969Z,103412.87
2019-05-14T13:26:18.717Z,103411.61
2019-05-14T13:28:50.880Z,103410.31
2019-05-14T13:31:20.369Z,103410.42
2019-05-14T13:33:50.853Z,103411.58
2019-05-14T13:36:21.223Z,103400.09
2019-05-14T13:38:51.562Z,103398.22
2019-05-14T13:41:21.800Z,103395.44
2019-05-14T13:43:52.046Z,103389.82
2019-05-14T13:46:22.391Z,103388.68
2019-05-14T13:48:52.667Z,103379.73
2019-05-14T13:51:23.042Z,103386.72
2019-05-14T13:53:53.136Z,103373.52
2019-05-14T13:56:23.454Z,103378.10
2019-05-14T13:58:53.791Z,103376.79
2019-05-14T14:01:24.065Z,103383.45
2019-05-14T14:04:06.802Z,103379.45
2019-05-14T14:06:26.531Z,103376.84
2019-05-14T14:08:59.314Z,103370.81
2019-05-14T14:11:31.497Z,103362.93
2019-05-14T14:14:01.189Z,103353.72
2019-05-14T14:16:31.435Z,103350.02
2019-05-14T14:19:03.842Z,103347.88
2019-05-14T14:21:33.728Z,103346.59
2019-05-14T14:24:03.974Z,103350.25
2019-05-14T14:26:34.162Z,103347.28
2019-05-14T14:29:04.631Z,103339.36
2019-05-14T14:31:35.008Z,103340.34
2019-05-14T14:34:05.536Z,103329.31
2019-05-14T14:36:38.446Z,103337.58
2019-05-14T14:39:09.762Z,103340.50
2019-05-14T14:41:39.895Z,103337.17
2019-05-14T14:44:10.238Z,103322.73
2019-05-14T14:46:40.636Z,103321.03
2019-05-14T14:49:11.207Z,103323.03
2019-05-14T14:51:44.805Z,103316.39
2019-05-14T14:54:16.154Z,103311.09
2019-05-14T14:56:45.479Z,103310.64
2019-05-14T14:59:18.642Z,103319.78
2019-05-14T15:01:50.219Z,103305.67
2019-05-14T15:04:19.767Z,103304.83
2019-05-14T15:06:50.846Z,103303.94
2019-05-14T15:09:21.603Z,103307.34
2019-05-14T15:11:51.781Z,103303.22
2019-05-14T15:14:21.876Z,103303.89
2019-05-14T15:16:51.973Z,103297.87
2019-05-14T15:19:22.205Z,103296.69
2019-05-14T15:21:52.449Z,103297.05
2019-05-14T15:24:22.709Z,103292.80
2019-05-14T15:26:53.087Z,103289.33
2019-05-14T15:29:23.293Z,103276.58
2019-05-14T15:31:53.500Z,103277.00
2019-05-14T15:34:23.894Z,103273.13
2019-05-14T15:36:54.243Z,103274.74
2019-05-14T15:39:24.648Z,103265.39
2019-05-14T15:41:54.894Z,103265.23
2019-05-14T15:44:25.131Z,103261.08
2019-05-14T15:46:55.304Z,103257.83
2019-05-14T15:49:28.206Z,103263.56
2019-05-14T15:51:57.712Z,103251.48
2019-05-14T15:54:39.808Z,103252.59
2019-05-14T15:57:00.343Z,103252.23
2019-05-14T15:59:31.277Z,103249.63
2019-05-14T16:02:02.289Z,103252.80
2019-05-14T16:04:32.633Z,103245.27
2019-05-14T16:07:03.263Z,103244.17
2019-05-14T16:09:33.863Z,103233.97
2019-05-14T16:12:04.395Z,103233.58
2019-05-14T16:14:34.939Z,103226.84
2019-05-14T16:17:05.270Z,103226.84
2019-05-14T16:19:39.049Z,103229.77
2019-05-14T16:22:09.816Z,103231.14
2019-05-14T16:24:55.810Z,103225.50
2019-05-14T16:27:12.843Z,103234.64
2019-05-14T16:29:45.900Z,103236.73
2019-05-14T16:32:17.984Z,103230.53
2019-05-14T16:34:48.914Z,103228.42
2019-05-14T16:37:19.211Z,103225.70
2019-05-14T16:39:52.509Z,103224.35
2019-05-14T16:42:25.613Z,103230.04
2019-05-14T16:44:59.719Z,103231.32
2019-05-14T16:47:32.375Z,103229.59
2019-05-14T16:50:08.684Z,103240.56
2019-05-14T16:52:41.701Z,103226.07
2019-05-14T16:55:23.134Z,103231.34
2019-05-14T16:57:41.654Z,103225.28
2019-05-14T17:00:12.519Z,103225.52
2019-05-14T17:02:42.664Z,103229.63
2019-05-14T17:05:13.240Z,103225.80
2019-05-14T17:07:43.373Z,103229.46
2019-05-14T17:10:13.714Z,103225.28
2019-05-14T17:12:52.615Z,103225.02
2019-05-14T17:15:18.092Z,103220.23
2019-05-14T17:17:48.330Z,103225.63
2019-05-14T17:20:19.373Z,103225.55
2019-05-14T17:22:50.607Z,103220.14
2019-05-14T17:25:27.220Z,103217.75
2019-05-14T17:27:52.956Z,103217.10
2019-05-14T17:30:23.290Z,103217.11
2019-05-14T17:32:53.682Z,103224.91
2019-05-14T17:35:24.032Z,103220.11
2019-05-14T17:37:54.690Z,103222.36
2019-05-14T17:40:24.966Z,103215.25
2019-05-14T17:42:55.378Z,103209.48
2019-05-14T17:45:28.262Z,103211.41
2019-05-14T17:47:58.524Z,103211.70
2019-05-14T17:50:29.447Z,103207.88
2019-05-14T17:53:00.303Z,103208.48
2019-05-14T17:55:43.559Z,103203.96
2019-05-14T17:58:02.679Z,103210.34
2019-05-14T18:00:35.655Z,103206.09
2019-05-14T18:03:08.729Z,103205.42
2019-05-14T18:05:39.146Z,103197.31
2019-05-14T18:08:09.422Z,103201.94
2019-05-14T18:10:39.699Z,103204.08
2019-05-14T18:13:09.895Z,103200.88
2019-05-14T18:15:40.122Z,103197.09
2019-05-14T18:18:10.352Z,103194.48
2019-05-14T18:20:40.505Z,103193.97
2019-05-14T18:23:18.158Z,103192.61
2019-05-14T18:26:03.788Z,103189.06
2019-05-14T18:28:21.210Z,103191.48
2019-05-14T18:30:51.445Z,103195.24
2019-05-14T18:33:21.536Z,103192.84
2019-05-14T18:35:51.789Z,103193.59
2019-05-14T18:38:21.981Z,103185.62
2019-05-14T18:40:52.226Z,103189.89
2019-05-14T18:43:22.308Z,103191.80
2019-05-14T18:45:52.389Z,103179.95
2019-05-14T18:48:22.782Z,103192.41
2019-05-14T18:50:53.080Z,103183.67
2019-05-14T18:53:23.570Z,103191.00
2019-05-14T18:55:53.811Z,103196.09
2019-05-14T18:58:26.041Z,103205.34
2019-05-14T19:00:58.167Z,103192.70
2019-05-14T19:03:28.612Z,103192.32
2019-05-14T19:05:58.969Z,103197.25
2019-05-14T19:08:29.200Z,103191.95
2019-05-14T19:10:59.598Z,103194.59
2019-05-14T19:13:30.395Z,103197.20
2019-05-14T19:16:00.549Z,103189.65
2019-05-14T19:18:31.141Z,103202.41
2019-05-14T19:21:01.291Z,103197.94
2019-05-14T19:23:34.182Z,103200.13
2019-05-14T19:26:04.339Z,103206.22
2019-05-14T19:28:34.537Z,103204.78
2019-05-14T19:31:04.766Z,103203.41
2019-05-14T19:33:35.011Z,103205.14
2019-05-14T19:36:05.248Z,103206.42
2019-05-14T19:38:35.404Z,103207.59
2019-05-14T19:41:08.605Z,103207.14
2019-05-14T19:43:39.094Z,103207.06
2019-05-14T19:46:09.306Z,103208.83
2019-05-14T19:48:39.698Z,103204.51
2019-05-14T19:51:09.829Z,103211.97
2019-05-14T19:53:40.048Z,103205.80
2019-05-14T19:56:10.202Z,103215.50
2019-05-14T19:58:40.600Z,103212.51
2019-05-14T20:01:10.859Z,103216.13
2019-05-14T20:03:41.079Z,103217.94
2019-05-14T20:06:11.328Z,103215.39
2019-05-14T20:08:41.532Z,103215.04
2019-05-14T20:11:39.831Z,103211.20
2019-05-14T20:14:10.119Z,103214.84
2019-05-14T20:16:40.414Z,103216.63
2019-05-14T20:19:10.677Z,103212.47
2019-05-14T20:21:40.921Z,103201.80
2019-05-14T20:24:11.094Z,103202.47
2019-05-14T20:26:41.213Z,103202.73
2019-05-14T20:29:11.431Z,103208.23
2019-05-14T20:31:41.646Z,103206.00
2019-05-14T20:34:11.806Z,103197.67
2019-05-14T20:36:42.021Z,103198.73
2019-05-14T20:39:12.242Z,103202.78
2019-05-14T20:41:42.441Z,103198.88
2019-05-14T20:44:12.749Z,103201.59
2019-05-14T20:46:42.956Z,103197.78
2019-05-14T20:49:13.123Z,103198.76
2019-05-14T20:51:43.828Z,103202.42
2019-05-14T20:54:14.058Z,103205.23
2019-05-14T20:56:44.244Z,103201.91
2019-05-14T20:59:14.590Z,103209.89
2019-05-14T21:01:44.802Z,103204.89
2019-05-14T21:04:15.101Z,103209.08
2019-05-14T21:06:45.569Z,103202.20
2019-05-14T21:09:16.011Z,103198.51
2019-05-14T21:11:46.334Z,103195.70
2019-05-14T21:14:18.258Z,103192.02
2019-05-14T21:16:49.048Z,103190.52
2019-05-14T21:19:19.336Z,103190.34
2019-05-14T21:21:49.598Z,103188.89
2019-05-14T21:24:21.848Z,103189.59
2019-05-14T21:26:51.949Z,103191.63
2019-05-14T21:29:22.313Z,103203.64
2019-05-14T21:31:52.618Z,103201.75
2019-05-14T21:34:22.975Z,103195.47
2019-05-14T21:36:53.364Z,103203.22
2019-05-14T21:39:24.079Z,103195.98
2019-05-14T21:41:54.475Z,103195.91
2019-05-14T21:44:24.720Z,103200.57
2019-05-14T21:46:55.006Z,103205.13
2019-05-14T21:49:25.382Z,103199.61
2019-05-14T21:51:58.024Z,103202.85
2019-05-14T21:54:28.120Z,103198.61
2019-05-14T21:56:59.651Z,103201.42
2019-05-14T21:59:30.006Z,103203.64
2019-05-14T22:02:00.475Z,103199.82
2019-05-14T22:04:30.975Z,103203.94
2019-05-14T22:07:01.356Z,103203.73
2019-05-14T22:09:31.771Z,103200.45
2019-05-14T22:12:02.139Z,103200.59
2019-05-14T22:14:32.419Z,103194.60
2019-05-14T22:17:02.852Z,103190.05
2019-05-14T22:19:33.079Z,103192.05
2019-05-14T22:22:03.363Z,103190.19
2019-05-14T22:24:33.796Z,103197.07
2019-05-14T22:27:04.158Z,103197.83
2019-05-14T22:29:34.273Z,103193.36
2019-05-14T22:32:04.754Z,103187.96
2019-05-14T22:34:35.108Z,103191.76
2019-05-14T22:37:05.419Z,103187.20
2019-05-14T22:39:35.789Z,103188.85
2019-05-14T22:42:09.205Z,103191.34
2019-05-14T22:44:39.280Z,103192.02
2019-05-14T22:47:09.583Z,103193.61
2019-05-14T22:49:39.905Z,103193.03
2019-05-14T22:52:10.313Z,103186.78
2019-05-14T22:54:40.576Z,103190.16
2019-05-14T22:57:10.910Z,103182.23
2019-05-14T22:59:41.261Z,103179.53
2019-05-14T23:02:11.880Z,103188.97
2019-05-14T23:04:42.446Z,103184.16
2019-05-14T23:07:13.068Z,103188.33
2019-05-14T23:09:43.624Z,103186.47
2019-05-14T23:12:13.948Z,103176.69
2019-05-14T23:14:45.337Z,103172.13
2019-05-14T23:17:15.901Z,103167.23
2019-05-14T23:19:48.256Z,103160.66
2019-05-14T23:22:18.656Z,103166.27
2019-05-14T23:24:49.231Z,103165.77
2019-05-14T23:27:19.640Z,103169.05
2019-05-14T23:29:50.053Z,103166.77
2019-05-14T23:32:20.503Z,103166.60
2019-05-14T23:34:51.022Z,103159.94
2019-05-14T23:37:22.448Z,103155.05
2019-05-14T23:39:53.361Z,103156.30
2019-05-14T23:42:24.425Z,103154.41
2019-05-14T23:44:58.377Z,103154.36
2019-05-14T23:47:28.873Z,103146.91
2019-05-14T23:50:02.790Z,103147.73
2019-05-14T23:52:33.861Z,103146.34
2019-05-14T23:55:04.537Z,103149.30
2019-05-14T23:57:34.904Z,103142.72
